createdAt,value
2017-08-06T00:00:57.084Z,88.90
2017-08-06T00:03:23.121Z,88.90
2017-08-06T00:05:49.203Z,88.90
2017-08-06T00:08:15.226Z,89.00
2017-08-06T00:10:41.280Z,88.70
2017-08-06T00:13:08.036Z,88.30
2017-08-06T00:15:34.084Z,88.20
2017-08-06T00:18:00.112Z,88.00
2017-08-06T00:20:26.899Z,88.50
2017-08-06T00:22:52.932Z,87.80
2017-08-06T00:25:18.982Z,87.90
2017-08-06T00:27:45.013Z,88.00
2017-08-06T00:30:11.049Z,88.10
2017-08-06T00:32:37.073Z,88.20
2017-08-06T00:35:10.972Z,88.20
2017-08-06T00:37:36.993Z,88.00
2017-08-06T00:40:03.036Z,88.20
2017-08-06T00:42:29.074Z,88.20
2017-08-06T00:44:55.145Z,88.40
2017-08-06T00:47:21.929Z,88.40
2017-08-06T00:49:47.977Z,88.30
2017-08-06T00:52:14.006Z,88.20
2017-08-06T00:54:40.039Z,88.90
2017-08-06T00:57:06.080Z,88.20
2017-08-06T00:59:32.113Z,88.20
2017-08-06T01:01:58.148Z,88.20
2017-08-06T01:04:24.179Z,88.10
2017-08-06T01:06:50.225Z,87.90
2017-08-06T01:09:16.253Z,88.10
2017-08-06T01:11:43.119Z,88.30
2017-08-06T01:14:09.141Z,88.30
2017-08-06T01:16:35.176Z,88.40
2017-08-06T01:19:01.209Z,88.50
2017-08-06T01:21:27.274Z,88.40
2017-08-06T01:23:53.292Z,88.80
2017-08-06T01:26:19.340Z,88.80
2017-08-06T01:28:45.374Z,88.70
2017-08-06T01:31:11.426Z,88.80
2017-08-06T01:33:37.460Z,88.90
2017-08-06T01:36:03.493Z,89.00
2017-08-06T01:38:29.535Z,89.00
2017-08-06T01:40:55.570Z,89.40
2017-08-06T01:43:21.627Z,89.10
2017-08-06T01:45:47.701Z,89.00
2017-08-06T01:48:13.786Z,89.10
2017-08-06T01:50:39.821Z,89.10
2017-08-06T01:53:05.886Z,89.10
2017-08-06T01:55:31.912Z,88.80
2017-08-06T01:57:57.978Z,89.00
2017-08-06T02:00:24.761Z,89.40
2017-08-06T02:02:50.807Z,89.40
2017-08-06T02:05:16.841Z,89.30
2017-08-06T02:07:43.657Z,89.80
2017-08-06T02:10:09.701Z,89.10
2017-08-06T02:12:35.774Z,89.20
2017-08-06T02:15:01.821Z,89.40
2017-08-06T02:20:00.737Z,88.90
2017-08-06T02:22:26.765Z,89.10
2017-08-06T02:24:52.844Z,89.00
2017-08-06T02:27:18.899Z,88.90
2017-08-06T02:29:44.952Z,89.00
2017-08-06T02:32:10.990Z,88.70
2017-08-06T02:34:37.085Z,88.70
2017-08-06T02:37:03.121Z,88.60
2017-08-06T02:39:30.217Z,88.70
2017-08-06T02:41:56.277Z,88.70
2017-08-06T02:44:22.327Z,88.60
2017-08-06T02:46:49.102Z,88.40
2017-08-06T02:49:15.181Z,88.20
2017-08-06T02:51:41.214Z,88.30
2017-08-06T02:54:07.264Z,88.20
2017-08-06T02:56:33.323Z,88.30
2017-08-06T02:58:59.363Z,88.10
2017-08-06T03:01:25.421Z,88.30
2017-08-06T03:03:52.185Z,88.40
2017-08-06T03:06:18.221Z,88.40
2017-08-06T03:08:44.262Z,88.40
2017-08-06T03:11:11.077Z,88.10
2017-08-06T03:13:37.210Z,88.10
2017-08-06T03:16:04.017Z,88.00
2017-08-06T03:18:30.048Z,88.00
2017-08-06T03:20:56.092Z,87.80
2017-08-06T03:23:22.117Z,87.90
2017-08-06T03:25:48.321Z,87.90
2017-08-06T03:28:14.359Z,87.90
2017-08-06T03:30:40.405Z,88.00
2017-08-06T03:33:07.170Z,88.10
2017-08-06T03:35:33.225Z,88.00
2017-08-06T03:37:59.274Z,88.10
2017-08-06T03:40:25.302Z,88.00
2017-08-06T03:42:51.349Z,88.00
2017-08-06T03:45:17.405Z,88.00
2017-08-06T03:47:44.008Z,88.00
2017-08-06T03:50:10.765Z,88.10
2017-08-06T03:52:36.813Z,88.10
2017-08-06T03:55:02.894Z,88.30
2017-08-06T03:57:28.927Z,87.90
2017-08-06T03:59:54.944Z,88.10
2017-08-06T04:02:20.988Z,88.00
2017-08-06T04:04:47.749Z,88.00
2017-08-06T04:07:13.798Z,87.90
2017-08-06T04:09:39.821Z,87.90
2017-08-06T04:12:05.902Z,87.80
2017-08-06T04:14:31.941Z,87.70
2017-08-06T04:16:58.001Z,87.90
2017-08-06T04:19:24.029Z,87.70
2017-08-06T04:21:50.068Z,87.70
2017-08-06T04:24:16.105Z,88.40
2017-08-06T04:26:42.161Z,87.50
2017-08-06T04:29:08.188Z,87.70
2017-08-06T04:31:34.249Z,87.70
2017-08-06T04:34:05.987Z,87.50
2017-08-06T04:36:32.053Z,87.50
2017-08-06T04:38:58.093Z,87.40
2017-08-06T04:41:24.881Z,87.40
2017-08-06T04:43:50.917Z,87.40
2017-08-06T04:46:16.951Z,87.40
2017-08-06T04:48:43.717Z,87.40
2017-08-06T04:51:09.783Z,87.40
2017-08-06T04:53:35.813Z,87.30
2017-08-06T04:56:01.881Z,87.20
2017-08-06T04:58:27.915Z,87.00
2017-08-06T05:00:54.689Z,87.10
2017-08-06T05:03:20.718Z,87.00
2017-08-06T05:05:46.749Z,86.80
2017-08-06T05:08:12.773Z,86.70
2017-08-06T05:10:38.878Z,86.80
2017-08-06T05:13:05.652Z,86.70
2017-08-06T05:15:31.686Z,86.60
2017-08-06T05:17:57.730Z,86.50
2017-08-06T05:20:23.773Z,86.30
2017-08-06T05:22:56.865Z,86.60
2017-08-06T05:25:22.911Z,86.10
2017-08-06T05:27:48.946Z,86.10
2017-08-06T05:30:15.753Z,85.90
2017-08-06T05:32:41.774Z,85.80
2017-08-06T05:35:07.817Z,85.60
2017-08-06T05:37:33.859Z,85.30
2017-08-06T05:40:06.960Z,84.80
2017-08-06T05:42:32.993Z,85.20
2017-08-06T05:44:59.751Z,84.80
2017-08-06T05:47:25.821Z,84.70
2017-08-06T05:49:51.854Z,84.40
2017-08-06T05:52:17.889Z,83.90
2017-08-06T05:54:44.268Z,83.90
2017-08-06T05:57:11.068Z,83.60
2017-08-06T05:59:37.113Z,83.40
2017-08-06T06:02:03.176Z,83.10
2017-08-06T06:04:29.205Z,83.60
2017-08-06T06:06:55.259Z,83.10
2017-08-06T06:09:21.286Z,82.90
2017-08-06T06:11:47.341Z,82.60
2017-08-06T06:14:13.377Z,82.30
2017-08-06T06:16:39.449Z,82.20
2017-08-06T06:19:05.460Z,82.10
2017-08-06T06:21:31.505Z,82.20
2017-08-06T06:23:58.257Z,81.50
2017-08-06T06:26:24.302Z,81.50
2017-08-06T06:28:50.340Z,80.90
2017-08-06T06:31:17.130Z,80.90
2017-08-06T06:33:43.181Z,80.80
2017-08-06T06:36:09.207Z,80.30
2017-08-06T06:38:35.270Z,80.00
2017-08-06T06:41:01.309Z,79.40
2017-08-06T06:43:27.344Z,79.40
2017-08-06T06:45:53.366Z,78.70
2017-08-06T06:48:19.416Z,79.00
2017-08-06T06:50:45.426Z,78.40
2017-08-06T06:53:11.456Z,78.40
2017-08-06T06:55:37.461Z,78.90
2017-08-06T06:58:03.497Z,77.90
2017-08-06T07:00:30.328Z,76.90
2017-08-06T07:02:56.361Z,76.90
2017-08-06T07:05:22.421Z,76.00
2017-08-06T07:07:48.464Z,75.60
2017-08-06T07:10:14.481Z,75.90
2017-08-06T07:12:40.623Z,75.20
2017-08-06T07:15:06.645Z,75.10
2017-08-06T07:17:32.690Z,75.20
2017-08-06T07:19:58.714Z,75.50
2017-08-06T07:22:25.522Z,73.90
2017-08-06T07:24:51.548Z,73.80
2017-08-06T07:27:17.566Z,74.10
2017-08-06T07:29:43.606Z,72.70
2017-08-06T07:32:09.711Z,72.20
2017-08-06T07:34:35.750Z,73.20
2017-08-06T07:37:01.785Z,71.20
2017-08-06T07:39:27.826Z,71.00
2017-08-06T07:41:53.864Z,71.20
2017-08-06T07:44:19.891Z,70.40
2017-08-06T07:46:45.945Z,69.80
2017-08-06T07:49:12.733Z,70.00
2017-08-06T07:51:38.756Z,69.90
2017-08-06T07:54:04.793Z,67.80
2017-08-06T07:56:31.565Z,66.00
2017-08-06T07:58:57.665Z,66.00
2017-08-06T08:01:23.704Z,65.60
2017-08-06T08:03:49.753Z,66.40
2017-08-06T08:06:16.521Z,67.20
2017-08-06T08:08:42.560Z,67.20
2017-08-06T08:11:08.629Z,66.80
2017-08-06T08:13:34.691Z,66.50
2017-08-06T08:16:00.876Z,66.50
2017-08-06T08:18:26.956Z,63.20
2017-08-06T08:20:52.997Z,63.20
2017-08-06T08:23:19.130Z,63.00
2017-08-06T08:25:45.281Z,63.40
2017-08-06T08:28:11.337Z,63.00
2017-08-06T08:30:37.393Z,62.10
2017-08-06T08:33:03.519Z,62.40
2017-08-06T08:35:29.552Z,63.30
2017-08-06T08:37:55.571Z,59.30
2017-08-06T08:40:21.636Z,59.50
2017-08-06T08:42:47.761Z,60.00
2017-08-06T08:45:13.869Z,59.60
2017-08-06T08:47:40.622Z,58.00
2017-08-06T08:50:06.669Z,58.50
2017-08-06T08:52:32.700Z,58.70
2017-08-06T08:54:59.569Z,58.50
2017-08-06T08:57:25.650Z,58.60
2017-08-06T08:59:51.706Z,58.10
2017-08-06T09:02:17.740Z,57.80
2017-08-06T09:04:43.785Z,56.40
2017-08-06T09:07:10.558Z,56.20
2017-08-06T09:09:36.586Z,56.20
2017-08-06T09:12:02.653Z,56.70
2017-08-06T09:14:28.704Z,57.50
2017-08-06T09:16:54.750Z,56.10
2017-08-06T09:19:21.538Z,55.90
2017-08-06T09:21:47.597Z,55.90
2017-08-06T09:24:14.392Z,57.00
2017-08-06T09:26:40.411Z,57.10
2017-08-06T09:29:06.550Z,55.60
2017-08-06T09:31:32.612Z,55.60
2017-08-06T09:33:58.635Z,56.20
2017-08-06T09:36:24.708Z,53.20
2017-08-06T09:38:50.729Z,53.90
2017-08-06T09:41:16.829Z,54.20
2017-08-06T09:43:42.852Z,54.00
2017-08-06T09:46:16.790Z,53.30
2017-08-06T09:48:42.865Z,54.00
2017-08-06T09:51:08.957Z,52.10
2017-08-06T09:53:35.000Z,53.90
2017-08-06T09:56:01.042Z,54.80
2017-08-06T09:58:27.879Z,54.80
2017-08-06T10:00:54.703Z,55.40
2017-08-06T10:03:20.750Z,55.40
2017-08-06T10:05:46.844Z,53.10
2017-08-06T10:08:12.883Z,53.50
2017-08-06T10:10:38.944Z,54.30
2017-08-06T10:13:04.974Z,54.60
2017-08-06T10:15:31.038Z,55.70
2017-08-06T10:17:58.116Z,56.60
2017-08-06T10:20:24.885Z,54.40
2017-08-06T10:22:50.954Z,54.40
2017-08-06T10:25:17.724Z,52.80
2017-08-06T10:27:43.770Z,52.70
2017-08-06T10:30:09.806Z,53.10
2017-08-06T10:32:35.863Z,52.40
2017-08-06T10:35:01.962Z,50.60
2017-08-06T10:37:28.033Z,51.40
2017-08-06T10:39:54.056Z,52.00
2017-08-06T10:42:20.134Z,51.70
2017-08-06T10:44:46.174Z,52.40
2017-08-06T10:47:12.220Z,54.20
2017-08-06T10:49:38.288Z,51.50
2017-08-06T10:52:04.332Z,51.20
2017-08-06T10:54:30.375Z,51.60
2017-08-06T10:56:56.428Z,50.50
2017-08-06T10:59:22.460Z,51.20
2017-08-06T11:01:48.742Z,50.60
2017-08-06T11:04:15.534Z,52.00
2017-08-06T11:06:41.633Z,52.00
2017-08-06T11:09:07.657Z,50.80
2017-08-06T11:11:33.726Z,51.20
2017-08-06T11:13:59.777Z,51.10
2017-08-06T11:16:25.856Z,51.10
2017-08-06T11:18:51.892Z,50.80
2017-08-06T11:21:19.115Z,51.00
2017-08-06T11:23:45.439Z,51.50
2017-08-06T11:26:11.569Z,50.10
2017-08-06T11:28:37.609Z,50.10
2017-08-06T11:31:03.685Z,50.40
2017-08-06T11:33:29.745Z,49.20
2017-08-06T11:35:55.920Z,50.00
2017-08-06T11:38:21.954Z,50.10
2017-08-06T11:40:48.734Z,50.40
2017-08-06T11:43:14.775Z,50.30
2017-08-06T11:45:40.801Z,48.60
2017-08-06T11:48:06.869Z,49.60
2017-08-06T11:50:32.890Z,49.60
2017-08-06T11:52:58.954Z,49.60
2017-08-06T11:55:25.725Z,48.90
2017-08-06T11:57:51.774Z,49.40
2017-08-06T12:00:18.567Z,48.80
2017-08-06T12:02:44.645Z,48.80
2017-08-06T12:05:10.689Z,48.70
2017-08-06T12:07:36.735Z,47.80
2017-08-06T12:10:02.790Z,48.70
2017-08-06T12:12:28.859Z,47.30
2017-08-06T12:15:02.658Z,49.10
2017-08-06T12:17:29.459Z,48.40
2017-08-06T12:19:55.502Z,48.30
2017-08-06T12:22:22.321Z,46.60
2017-08-06T12:24:48.370Z,46.70
2017-08-06T12:27:14.430Z,47.00
2017-08-06T12:32:13.112Z,46.30
2017-08-06T12:34:39.153Z,46.20
2017-08-06T12:37:05.229Z,46.70
2017-08-06T12:39:31.253Z,47.00
2017-08-06T12:41:58.034Z,44.60
2017-08-06T12:44:24.052Z,44.60
2017-08-06T12:46:50.105Z,44.00
2017-08-06T12:49:16.142Z,44.90
2017-08-06T12:51:42.187Z,43.70
2017-08-06T12:54:08.228Z,43.40
2017-08-06T12:56:34.285Z,43.80
2017-08-06T12:59:00.308Z,43.20
2017-08-06T13:01:26.354Z,41.80
2017-08-06T13:03:52.410Z,39.80
2017-08-06T13:06:18.499Z,36.90
2017-08-06T13:08:45.365Z,34.60
2017-08-06T13:11:11.481Z,34.50
2017-08-06T13:13:37.535Z,34.90
2017-08-06T13:16:03.626Z,33.50
2017-08-06T13:18:29.674Z,35.50
2017-08-06T13:20:55.701Z,37.80
2017-08-06T13:23:21.740Z,38.90
2017-08-06T13:25:47.809Z,40.50
2017-08-06T13:28:13.847Z,40.70
2017-08-06T13:30:39.910Z,41.00
2017-08-06T13:33:05.970Z,41.10
2017-08-06T13:35:32.038Z,41.10
2017-08-06T13:37:58.073Z,43.10
2017-08-06T13:40:24.109Z,43.60
2017-08-06T13:42:50.159Z,44.10
2017-08-06T13:45:16.222Z,43.60
2017-08-06T13:47:42.238Z,44.60
2017-08-06T13:50:08.501Z,44.00
2017-08-06T13:52:34.657Z,45.00
2017-08-06T13:55:00.701Z,42.30
2017-08-06T13:57:26.757Z,41.20
2017-08-06T13:59:52.837Z,43.10
2017-08-06T14:02:18.980Z,42.20
2017-08-06T14:07:21.381Z,36.80
2017-08-06T14:09:47.417Z,36.70
2017-08-06T14:12:13.474Z,37.50
2017-08-06T14:14:39.504Z,39.40
2017-08-06T14:17:05.902Z,39.90
2017-08-06T14:19:32.014Z,37.90
2017-08-06T14:21:58.059Z,37.70
2017-08-06T14:24:24.103Z,38.60
2017-08-06T14:26:50.138Z,39.20
2017-08-06T14:29:16.916Z,36.60
2017-08-06T14:31:42.953Z,36.60
2017-08-06T14:34:09.004Z,35.00
2017-08-06T14:36:35.026Z,35.60
2017-08-06T14:39:01.071Z,32.80
2017-08-06T14:41:27.118Z,33.00
2017-08-06T14:43:53.917Z,32.30
2017-08-06T14:46:19.977Z,32.30
2017-08-06T14:48:46.031Z,31.00
2017-08-06T14:51:13.458Z,30.80
2017-08-06T14:53:39.595Z,31.20
2017-08-06T14:56:05.625Z,30.20
2017-08-06T14:58:32.547Z,29.30
2017-08-06T15:00:58.574Z,29.20
2017-08-06T15:03:25.359Z,29.00
2017-08-06T15:05:51.599Z,29.00
2017-08-06T15:08:17.801Z,29.30
2017-08-06T15:10:44.006Z,30.50
2017-08-06T15:13:10.032Z,33.00
2017-08-06T15:15:36.150Z,32.00
2017-08-06T15:18:02.213Z,31.90
2017-08-06T15:20:28.286Z,29.30
2017-08-06T15:22:54.547Z,30.30
2017-08-06T15:25:20.578Z,30.20
2017-08-06T15:27:46.856Z,30.10
2017-08-06T15:30:12.899Z,30.00
2017-08-06T15:32:38.977Z,29.50
2017-08-06T15:35:05.068Z,30.70
2017-08-06T15:37:31.086Z,29.20
2017-08-06T15:39:57.146Z,29.60
2017-08-06T15:42:23.411Z,28.00
2017-08-06T15:44:50.386Z,29.00
2017-08-06T15:47:16.413Z,29.00
2017-08-06T15:49:42.449Z,29.00
2017-08-06T15:52:09.230Z,29.70
2017-08-06T15:54:35.268Z,29.70
2017-08-06T15:57:01.285Z,31.20
2017-08-06T15:59:27.313Z,31.80
2017-08-06T16:01:54.098Z,29.10
2017-08-06T16:04:20.118Z,29.00
2017-08-06T16:06:46.179Z,28.50
2017-08-06T16:09:12.204Z,28.40
2017-08-06T16:11:38.300Z,28.50
2017-08-06T16:14:04.332Z,28.50
2017-08-06T16:16:30.476Z,28.00
2017-08-06T16:18:56.505Z,27.70
2017-08-06T16:21:22.534Z,28.80
2017-08-06T16:23:48.656Z,29.70
2017-08-06T16:26:14.668Z,30.40
2017-08-06T16:28:41.492Z,29.60
2017-08-06T16:31:07.549Z,29.50
2017-08-06T16:33:33.618Z,30.40
2017-08-06T16:35:59.662Z,30.70
2017-08-06T16:38:25.745Z,31.00
2017-08-06T16:40:51.900Z,31.30
2017-08-06T16:43:18.137Z,31.50
2017-08-06T16:45:44.162Z,29.50
2017-08-06T16:48:10.209Z,29.20
2017-08-06T16:50:36.274Z,29.10
2017-08-06T16:53:02.309Z,28.40
2017-08-06T16:55:28.371Z,28.20
2017-08-06T16:57:54.496Z,27.60
2017-08-06T17:00:21.637Z,28.00
2017-08-06T17:02:47.652Z,28.20
2017-08-06T17:05:13.706Z,28.20
2017-08-06T17:07:39.733Z,28.20
2017-08-06T17:10:05.774Z,28.80
2017-08-06T17:12:31.834Z,28.10
2017-08-06T17:14:57.860Z,28.50
2017-08-06T17:17:23.917Z,29.00
2017-08-06T17:19:49.957Z,29.70
2017-08-06T17:22:16.072Z,30.70
2017-08-06T17:24:42.849Z,30.30
2017-08-06T17:27:09.066Z,30.30
2017-08-06T17:29:35.113Z,31.70
2017-08-06T17:32:01.969Z,33.00
2017-08-06T17:34:28.045Z,33.00
2017-08-06T17:36:55.165Z,35.00
2017-08-06T17:39:21.342Z,34.90
2017-08-06T17:41:47.538Z,36.10
2017-08-06T17:44:13.586Z,36.70
2017-08-06T17:46:39.618Z,37.50
2017-08-06T17:49:06.705Z,38.20
2017-08-06T17:51:32.746Z,38.00
2017-08-06T17:53:58.897Z,38.60
2017-08-06T17:56:25.749Z,40.20
2017-08-06T17:58:51.815Z,40.20
2017-08-06T18:01:18.076Z,41.30
2017-08-06T18:03:44.133Z,40.50
2017-08-06T18:06:10.183Z,41.90
2017-08-06T18:08:36.201Z,42.00
2017-08-06T18:11:02.255Z,40.00
2017-08-06T18:13:28.282Z,39.20
2017-08-06T18:15:54.396Z,39.40
2017-08-06T18:18:20.559Z,40.00
2017-08-06T18:20:46.634Z,41.10
2017-08-06T18:23:12.677Z,42.10
2017-08-06T18:25:38.713Z,42.80
2017-08-06T18:28:04.769Z,43.30
2017-08-06T18:30:30.797Z,44.00
2017-08-06T18:32:56.853Z,44.80
2017-08-06T18:35:23.207Z,45.50
2017-08-06T18:37:49.295Z,46.00
2017-08-06T18:40:15.346Z,46.00
2017-08-06T18:42:42.145Z,49.10
2017-08-06T18:45:08.183Z,49.10
2017-08-06T18:47:34.245Z,49.90
2017-08-06T18:50:00.283Z,50.60
2017-08-06T18:52:27.293Z,50.90
2017-08-06T18:54:54.219Z,49.60
2017-08-06T18:57:20.289Z,50.50
2017-08-06T18:59:46.357Z,52.20
2017-08-06T19:02:12.397Z,51.80
2017-08-06T19:04:39.373Z,51.20
2017-08-06T19:07:05.461Z,51.10
2017-08-06T19:09:31.483Z,51.20
2017-08-06T19:11:57.676Z,51.50
2017-08-06T19:14:23.790Z,51.50
2017-08-06T19:16:50.638Z,54.60
2017-08-06T19:19:16.715Z,54.50
2017-08-06T19:21:43.506Z,56.80
2017-08-06T19:24:09.598Z,56.10
2017-08-06T19:26:35.665Z,52.90
2017-08-06T19:29:02.448Z,55.00
2017-08-06T19:31:28.521Z,55.40
2017-08-06T19:33:54.593Z,54.30
2017-08-06T19:36:20.667Z,56.10
2017-08-06T19:38:46.775Z,57.70
2017-08-06T19:41:12.834Z,58.20
2017-08-06T19:43:38.875Z,58.50
2017-08-06T19:46:04.933Z,57.70
2017-08-06T19:48:31.015Z,58.50
2017-08-06T19:50:57.841Z,59.40
2017-08-06T19:53:24.277Z,59.90
2017-08-06T19:55:50.403Z,59.90
2017-08-06T19:58:16.488Z,59.90
2017-08-06T20:00:42.541Z,60.00
2017-08-06T20:03:08.624Z,58.90
2017-08-06T20:05:34.652Z,60.80
2017-08-06T20:08:00.693Z,61.10
2017-08-06T20:10:27.091Z,61.70
2017-08-06T20:12:53.394Z,61.60
2017-08-06T20:15:19.443Z,62.50
2017-08-06T20:17:45.529Z,63.50
2017-08-06T20:20:11.555Z,62.60
2017-08-06T20:22:37.604Z,63.40
2017-08-06T20:25:04.798Z,64.10
2017-08-06T20:27:30.842Z,64.40
2017-08-06T20:29:57.646Z,64.80
2017-08-06T20:32:23.802Z,64.70
2017-08-06T20:34:49.843Z,65.10
2017-08-06T20:37:15.870Z,65.10
2017-08-06T20:39:41.922Z,65.60
2017-08-06T20:42:07.994Z,65.90
2017-08-06T20:44:34.122Z,66.00
2017-08-06T20:47:01.206Z,66.50
2017-08-06T20:49:27.269Z,65.80
2017-08-06T20:51:53.698Z,66.20
2017-08-06T20:54:20.551Z,67.40
2017-08-06T20:56:46.649Z,67.40
2017-08-06T20:59:13.493Z,67.50
2017-08-06T21:01:39.533Z,67.50
2017-08-06T21:04:05.576Z,68.10
2017-08-06T21:06:31.770Z,68.10
2017-08-06T21:08:57.836Z,68.90
2017-08-06T21:11:23.895Z,69.30
2017-08-06T21:13:49.946Z,69.70
2017-08-06T21:16:16.082Z,69.60
2017-08-06T21:18:42.121Z,69.10
2017-08-06T21:21:08.175Z,69.10
2017-08-06T21:23:34.230Z,69.30
2017-08-06T21:26:00.278Z,69.60
2017-08-06T21:28:26.310Z,69.50
2017-08-06T21:30:52.366Z,69.40
2017-08-06T21:33:18.399Z,69.20
2017-08-06T21:35:51.373Z,69.40
2017-08-06T21:38:17.618Z,69.80
2017-08-06T21:40:44.396Z,70.10
2017-08-06T21:43:10.437Z,70.10
2017-08-06T21:45:37.397Z,70.00
2017-08-06T21:48:03.437Z,70.40
2017-08-06T21:50:29.501Z,70.20
2017-08-06T21:52:55.541Z,70.30
2017-08-06T21:55:21.599Z,70.20
2017-08-06T21:57:47.702Z,70.60
2017-08-06T22:00:13.746Z,70.70
2017-08-06T22:02:40.526Z,70.80
2017-08-06T22:05:06.568Z,70.70
2017-08-06T22:07:32.602Z,70.40
2017-08-06T22:09:59.413Z,70.50
2017-08-06T22:12:25.957Z,70.50
2017-08-06T22:14:51.984Z,70.60
2017-08-06T22:17:18.510Z,70.90
2017-08-06T22:19:44.529Z,71.50
2017-08-06T22:22:10.569Z,71.50
2017-08-06T22:24:36.601Z,71.60
2017-08-06T22:27:02.676Z,71.80
2017-08-06T22:29:28.734Z,71.40
2017-08-06T22:31:54.782Z,71.20
2017-08-06T22:34:20.827Z,71.00
2017-08-06T22:36:48.133Z,71.20
2017-08-06T22:39:14.180Z,71.40
2017-08-06T22:41:40.244Z,72.10
2017-08-06T22:44:06.302Z,71.60
2017-08-06T22:46:32.349Z,71.80
2017-08-06T22:48:58.394Z,71.80
2017-08-06T22:51:24.430Z,72.10
2017-08-06T22:53:50.551Z,72.90
2017-08-06T22:56:16.615Z,73.20
2017-08-06T22:58:42.688Z,72.80
2017-08-06T23:01:08.733Z,72.90
2017-08-06T23:03:34.789Z,72.80
2017-08-06T23:06:00.817Z,72.90
2017-08-06T23:08:26.878Z,73.00
2017-08-06T23:10:52.965Z,73.10
2017-08-06T23:13:19.833Z,73.40
2017-08-06T23:15:45.897Z,73.40
2017-08-06T23:18:11.938Z,74.10
2017-08-06T23:20:37.991Z,75.00
2017-08-06T23:23:04.047Z,75.50
2017-08-06T23:25:30.130Z,75.50
2017-08-06T23:27:56.155Z,75.80
2017-08-06T23:30:22.940Z,75.70
2017-08-06T23:32:48.993Z,75.70
2017-08-06T23:35:15.813Z,75.60
2017-08-06T23:40:15.482Z,75.50
2017-08-06T23:42:41.529Z,75.70
2017-08-06T23:45:07.573Z,75.80
2017-08-06T23:47:33.600Z,75.80
2017-08-06T23:49:59.670Z,75.50
2017-08-06T23:52:26.446Z,75.80
2017-08-06T23:54:52.515Z,75.70
2017-08-06T23:57:18.579Z,75.80
2017-08-06T23:59:44.619Z,76.30
